< < Back
Terminal Aerodrome Forecast


Current Version              Previous Versions:   1  2  3  4  5  6  7  8  9  

Terminal Aerodrome Forecast

765
FTUS42 KFFC 291900 AAA
TAFATL
TAF AMD
KATL 291951Z 2920/3024 31011G16KT P6SM SCT050
     FM300100 35007KT P6SM SKC
     FM301300 04006KT P6SM FEW030
     FM301800 35006KT P6SM SCT030 SCT250=



Latest METAR

252
SAUS70 KWBC 292100
MTRATL
METAR KATL 292052Z 32012G17KT 10SM FEW050 28/14 A2998 RMK AO2 SLP144
T02780144 56008


USA.gov is the U.S. government's official web portal to all federal, state and local government web resources and services.